Time;durP1;ratioP1;P1;durP2;ratioP2;P2;SDS_P1;SDS_P2;PMS_P1;PMS_P2;Temp;Humidity;BMP_temperature;BMP_pressure;BME280_temperature;BME280_humidity;BME280_pressure;Samples;Min_cycle;Max_cycle;Signal;HPM_P1;HPM_P2
2022/12/17 13:06:41;;;;;;;;;;;11.00;82.80;;;;;;5018443;28;86534;-41
2022/12/17 13:09:16;;;;;;;;;;;11.00;82.70;;;;;;5042314;28;87110;-41
2022/12/17 13:11:45;;;;;;;;;;;11.00;82.70;;;;;;5042401;28;87204;-40
2022/12/17 13:14:15;;;;;;;;;;;11.00;82.70;;;;;;5041399;28;88239;-41
2022/12/17 13:16:40;;;;;;;;;;;11.00;82.70;;;;;;5041838;28;87059;-40
2022/12/17 13:19:41;;;;;;;;;;;11.00;82.70;;;;;;5045051;28;87947;-40
2022/12/17 13:22:13;;;;;;;;;;;11.00;82.90;;;;;;4924203;28;87181;-40
2022/12/17 13:24:38;;;;;;;;;;;11.00;82.70;;;;;;5024777;28;87469;-40
2022/12/17 13:27:05;;;;;;;;;;;11.00;82.70;;;;;;5041826;28;88111;-40
2022/12/17 13:29:36;;;;;;;;;;;11.00;82.70;;;;;;5041638;28;87103;-40
2022/12/17 13:32:02;;;;;;;;;;;11.00;82.80;;;;;;5042441;28;86448;-40
2022/12/17 13:34:43;;;;;;;;;;;11.00;82.90;;;;;;5041831;28;88036;-40
2022/12/17 13:37:08;;;;;;;;;;;11.00;82.90;;;;;;5041774;28;87056;-41
2022/12/17 13:39:37;;;;;;;;;;;11.00;82.90;;;;;;5041021;28;88022;-40
2022/12/17 13:42:02;;;;;;;;;;;11.00;82.80;;;;;;5044754;28;88237;-41
2022/12/17 13:44:39;;;;;;;;;;;11.00;82.70;;;;;;5041934;27;87581;-40
2022/12/17 13:47:04;;;;;;;;;;;11.00;82.70;;;;;;5044534;28;88060;-41
2022/12/17 13:49:30;;;;;;;;;;;11.00;82.80;;;;;;5044899;27;87196;-40
2022/12/17 13:52:19;;;;;;;;;;;11.00;82.70;;;;;;5045344;28;87314;-41
2022/12/17 13:54:45;;;;;;;;;;;11.00;82.70;;;;;;5031593;28;88214;-40
2022/12/17 13:57:15;;;;;;;;;;;11.00;82.80;;;;;;5045692;28;86415;-41
2022/12/17 13:59:48;;;;;;;;;;;11.00;82.90;;;;;;5045170;28;86942;-40
2022/12/17 14:02:26;;;;;;;;;;;11.00;82.90;;;;;;5044517;28;88138;-41
2022/12/17 14:04:53;;;;;;;;;;;11.00;82.90;;;;;;5047555;28;88009;-40
2022/12/17 14:07:19;;;;;;;;;;;11.00;83.00;;;;;;5044721;27;88042;-40
2022/12/17 14:09:45;;;;;;;;;;;11.00;83.10;;;;;;5045027;28;87003;-40
2022/12/17 14:12:24;;;;;;;;;;;11.00;83.00;;;;;;5045183;27;87477;-41
2022/12/17 14:15:01;;;;;;;;;;;11.00;83.10;;;;;;5044407;28;89578;-41
2022/12/17 14:17:35;;;;;;;;;;;11.00;83.10;;;;;;5044828;28;87115;-40
2022/12/17 14:20:03;;;;;;;;;;;11.00;83.00;;;;;;5045272;28;87332;-40
2022/12/17 14:22:43;;;;;;;;;;;11.10;83.00;;;;;;5044685;28;88375;-40
2022/12/17 14:25:13;;;;;;;;;;;11.00;82.90;;;;;;5044281;28;87169;-40
2022/12/17 14:27:40;;;;;;;;;;;11.00;82.90;;;;;;5047276;28;88067;-41
2022/12/17 14:30:22;;;;;;;;;;;11.00;82.80;;;;;;5044074;28;88050;-41
2022/12/17 14:32:47;;;;;;;;;;;11.00;82.80;;;;;;5044542;28;89407;-40
2022/12/17 14:35:23;;;;;;;;;;;11.00;82.70;;;;;;5044405;28;87218;-40
2022/12/17 14:37:48;;;;;;;;;;;11.00;82.70;;;;;;5044729;28;87435;-40
2022/12/17 14:40:14;;;;;;;;;;;11.00;82.70;;;;;;5044081;28;87365;-40
2022/12/17 14:42:40;;;;;;;;;;;11.00;82.60;;;;;;5044270;28;88450;-40
2022/12/17 14:45:25;;;;;;;;;;;11.00;82.60;;;;;;5044687;28;87126;-41
2022/12/17 14:47:56;;;;;;;;;;;11.00;82.60;;;;;;5044142;28;86801;-40
2022/12/17 14:50:21;;;;;;;;;;;11.00;82.60;;;;;;5046741;28;87985;-40
2022/12/17 14:52:48;;;;;;;;;;;11.00;82.50;;;;;;5044242;28;87846;-40
2022/12/17 14:55:32;;;;;;;;;;;11.00;82.50;;;;;;5043335;28;88978;-41
2022/12/17 14:58:14;;;;;;;;;;;11.00;82.50;;;;;;5043825;28;87097;-41
2022/12/17 15:00:42;;;;;;;;;;;11.00;82.40;;;;;;5043669;28;87397;-40
2022/12/17 15:03:16;;;;;;;;;;;11.00;82.40;;;;;;5043591;28;89420;-40
2022/12/17 15:05:42;;;;;;;;;;;11.00;82.40;;;;;;5044045;28;87071;-40
2022/12/17 15:08:09;;;;;;;;;;;11.00;82.40;;;;;;5044063;28;87387;-40
2022/12/17 15:10:34;;;;;;;;;;;11.00;82.40;;;;;;5043324;28;88141;-40
2022/12/17 15:13:00;;;;;;;;;;;11.00;82.40;;;;;;5047468;28;86256;-40
2022/12/17 15:15:25;;;;;;;;;;;11.00;82.40;;;;;;5043623;28;88063;-40
2022/12/17 15:17:51;;;;;;;;;;;11.00;82.40;;;;;;5043913;27;87096;-41
2022/12/17 15:20:17;;;;;;;;;;;11.00;82.40;;;;;;5043515;28;87935;-40
2022/12/17 15:22:43;;;;;;;;;;;11.00;82.40;;;;;;5043341;28;89641;-40
2022/12/17 15:25:13;;;;;;;;;;;10.90;82.30;;;;;;5043918;28;86944;-41
2022/12/17 15:27:38;;;;;;;;;;;11.00;82.40;;;;;;5043705;28;87375;-41
2022/12/17 15:30:04;;;;;;;;;;;11.00;82.40;;;;;;5043446;28;87233;-41
2022/12/17 15:32:30;;;;;;;;;;;10.90;82.30;;;;;;5046392;28;86967;-40
2022/12/17 15:34:55;;;;;;;;;;;10.90;82.60;;;;;;5043369;28;88574;-41
2022/12/17 15:37:24;;;;;;;;;;;11.00;82.40;;;;;;5044366;28;87359;-41
2022/12/17 15:39:49;;;;;;;;;;;10.90;82.40;;;;;;5043149;28;87087;-41
2022/12/17 15:44:59;;;;;;;;;;;10.90;82.40;;;;;;5043252;28;87812;-40
2022/12/17 15:47:25;;;;;;;;;;;10.90;82.50;;;;;;5043666;28;88624;-40
2022/12/17 15:49:50;;;;;;;;;;;10.90;82.50;;;;;;5043187;28;88352;-40
2022/12/17 15:52:16;;;;;;;;;;;10.90;82.40;;;;;;5043865;28;87094;-40
2022/12/17 15:54:41;;;;;;;;;;;10.90;82.40;;;;;;5046091;28;87376;-41
2022/12/17 15:57:07;;;;;;;;;;;10.90;82.40;;;;;;5043120;28;88358;-41
2022/12/17 15:59:34;;;;;;;;;;;10.90;82.40;;;;;;5043583;28;86996;-41
2022/12/17 16:01:59;;;;;;;;;;;10.90;82.40;;;;;;5043262;28;88540;-40
2022/12/17 16:04:25;;;;;;;;;;;10.90;82.40;;;;;;5043434;28;87093;-40
2022/12/17 16:06:50;;;;;;;;;;;10.90;82.40;;;;;;5043412;28;87449;-40
2022/12/17 16:09:16;;;;;;;;;;;10.90;82.40;;;;;;5041821;27;88966;-41
2022/12/17 16:11:41;;;;;;;;;;;10.90;82.30;;;;;;5043167;28;87638;-40
2022/12/17 16:14:07;;;;;;;;;;;10.90;82.30;;;;;;5042989;28;87513;-41
2022/12/17 16:16:33;;;;;;;;;;;10.90;82.30;;;;;;5045711;28;88087;-41
2022/12/17 16:18:58;;;;;;;;;;;10.90;82.20;;;;;;5043128;28;87528;-40
2022/12/17 16:21:23;;;;;;;;;;;10.90;82.20;;;;;;5043024;28;87551;-40
2022/12/17 16:23:49;;;;;;;;;;;10.90;82.20;;;;;;5042936;28;87171;-41
2022/12/17 16:26:14;;;;;;;;;;;10.90;82.10;;;;;;5043535;28;87497;-40
2022/12/17 16:28:43;;;;;;;;;;;10.90;82.10;;;;;;5042434;28;88229;-41
2022/12/17 16:31:10;;;;;;;;;;;10.90;82.20;;;;;;5042746;28;87008;-40
2022/12/17 16:33:37;;;;;;;;;;;10.90;82.20;;;;;;5042193;28;88030;-40
2022/12/17 16:36:03;;;;;;;;;;;10.90;82.40;;;;;;5042188;28;89281;-40
2022/12/17 16:38:29;;;;;;;;;;;10.90;82.40;;;;;;5045701;28;87160;-41
2022/12/17 16:40:58;;;;;;;;;;;10.90;82.40;;;;;;5041519;28;88843;-41
2022/12/17 16:43:24;;;;;;;;;;;10.90;82.50;;;;;;5042714;28;87141;-40
2022/12/17 16:45:50;;;;;;;;;;;10.90;82.40;;;;;;5042849;28;87060;-41
2022/12/17 16:48:18;;;;;;;;;;;10.90;82.30;;;;;;5042315;28;87867;-41
2022/12/17 16:50:44;;;;;;;;;;;10.90;82.50;;;;;;5042952;28;86413;-41
2022/12/17 16:53:10;;;;;;;;;;;10.90;82.40;;;;;;5042665;28;87095;-40
2022/12/17 16:55:45;;;;;;;;;;;10.90;82.60;;;;;;5042443;28;88074;-41
2022/12/17 16:58:11;;;;;;;;;;;10.90;82.50;;;;;;5041662;28;88048;-40
2022/12/17 17:00:37;;;;;;;;;;;10.90;82.40;;;;;;5044769;28;88654;-41
2022/12/17 17:03:03;;;;;;;;;;;10.90;82.40;;;;;;5042516;28;87145;-41
2022/12/17 17:05:33;;;;;;;;;;;10.90;82.50;;;;;;5042611;28;86988;-40
2022/12/17 17:07:58;;;;;;;;;;;10.90;82.50;;;;;;5041995;28;87966;-40
2022/12/17 17:10:24;;;;;;;;;;;10.90;82.50;;;;;;5042271;28;87123;-41
2022/12/17 17:12:50;;;;;;;;;;;10.90;82.30;;;;;;5042388;28;87022;-40
2022/12/17 17:15:16;;;;;;;;;;;10.90;82.40;;;;;;5042469;28;86647;-41
2022/12/17 17:17:42;;;;;;;;;;;10.90;82.40;;;;;;5042159;28;87139;-41
2022/12/17 17:20:07;;;;;;;;;;;10.90;82.40;;;;;;5045127;27;88122;-41
2022/12/17 17:22:33;;;;;;;;;;;10.90;82.40;;;;;;5045177;28;88327;-41
2022/12/17 17:24:58;;;;;;;;;;;10.90;82.50;;;;;;5045679;28;88395;-41
2022/12/17 17:27:24;;;;;;;;;;;10.90;82.20;;;;;;5045332;28;88105;-41
2022/12/17 17:29:49;;;;;;;;;;;10.90;82.40;;;;;;5045950;28;87161;-41
2022/12/17 17:32:15;;;;;;;;;;;10.90;82.20;;;;;;5045757;28;87334;-41
2022/12/17 17:34:40;;;;;;;;;;;10.90;82.20;;;;;;5045429;28;87929;-41
2022/12/17 17:37:06;;;;;;;;;;;10.90;82.10;;;;;;5045143;28;87099;-40
2022/12/17 17:39:33;;;;;;;;;;;10.90;82.20;;;;;;5045568;28;87417;-40
2022/12/17 17:41:58;;;;;;;;;;;10.90;82.20;;;;;;5047719;28;89294;-41
2022/12/17 17:44:24;;;;;;;;;;;10.90;82.10;;;;;;5045324;28;87321;-40
2022/12/17 17:46:49;;;;;;;;;;;10.90;82.00;;;;;;5044556;27;89230;-40
2022/12/17 17:49:15;;;;;;;;;;;10.90;81.90;;;;;;5045381;28;87162;-41
2022/12/17 17:51:42;;;;;;;;;;;10.90;81.90;;;;;;5045206;28;88724;-40
2022/12/17 17:54:08;;;;;;;;;;;10.90;81.80;;;;;;5044709;28;88116;-41
2022/12/17 17:56:35;;;;;;;;;;;10.90;81.90;;;;;;5044914;28;87178;-41
2022/12/17 17:59:02;;;;;;;;;;;10.90;82.40;;;;;;5045190;28;87374;-41
2022/12/17 18:01:29;;;;;;;;;;;10.90;81.80;;;;;;5044582;28;87951;-41
2022/12/17 18:03:55;;;;;;;;;;;10.90;81.80;;;;;;5048619;28;86420;-40
2022/12/17 18:06:21;;;;;;;;;;;10.90;81.70;;;;;;5044881;28;87306;-40
2022/12/17 18:08:46;;;;;;;;;;;10.90;81.70;;;;;;5045186;28;87316;-41
2022/12/17 18:11:13;;;;;;;;;;;10.90;81.80;;;;;;5044452;28;88002;-41
2022/12/17 18:13:54;;;;;;;;;;;10.90;81.80;;;;;;5044334;28;89712;-40
2022/12/17 18:16:21;;;;;;;;;;;10.90;81.70;;;;;;5044924;28;87079;-41
2022/12/17 18:18:47;;;;;;;;;;;10.90;81.70;;;;;;5044859;28;87508;-40
2022/12/17 18:21:15;;;;;;;;;;;10.90;81.70;;;;;;5044165;28;89012;-40
2022/12/17 18:23:41;;;;;;;;;;;10.90;81.70;;;;;;5044637;28;87576;-40
2022/12/17 18:26:11;;;;;;;;;;;10.90;81.70;;;;;;5047440;28;87244;-41
2022/12/17 18:28:37;;;;;;;;;;;10.90;81.60;;;;;;5045316;28;86365;-40
2022/12/17 18:31:07;;;;;;;;;;;10.90;81.60;;;;;;5044418;28;87093;-41
2022/12/17 18:33:33;;;;;;;;;;;10.90;81.60;;;;;;5043981;28;89477;-41
2022/12/17 18:35:58;;;;;;;;;;;10.90;81.60;;;;;;5044047;28;88092;-40
2022/12/17 18:38:24;;;;;;;;;;;10.90;81.50;;;;;;5044581;28;88376;-40
2022/12/17 18:40:49;;;;;;;;;;;10.90;81.60;;;;;;5043755;28;88251;-40
2022/12/17 18:43:23;;;;;;;;;;;10.90;81.50;;;;;;5044341;28;87103;-41
2022/12/17 18:45:49;;;;;;;;;;;10.90;81.50;;;;;;5044630;28;87433;-41
2022/12/17 18:48:15;;;;;;;;;;;10.90;81.50;;;;;;5046906;28;87988;-40
2022/12/17 18:50:40;;;;;;;;;;;10.90;81.40;;;;;;5044336;28;87405;-41
2022/12/17 18:53:06;;;;;;;;;;;10.90;81.40;;;;;;5044601;28;87513;-41
2022/12/17 18:55:31;;;;;;;;;;;10.80;81.40;;;;;;5044484;28;86967;-41
2022/12/17 18:57:57;;;;;;;;;;;10.80;81.40;;;;;;5044445;28;87059;-40
2022/12/17 19:00:22;;;;;;;;;;;10.80;81.30;;;;;;5043388;28;89082;-41
2022/12/17 19:02:48;;;;;;;;;;;10.80;81.30;;;;;;5043951;28;87146;-41
2022/12/17 19:05:13;;;;;;;;;;;10.80;81.40;;;;;;5044133;28;87980;-41
2022/12/17 19:07:39;;;;;;;;;;;10.80;81.30;;;;;;5044039;28;88253;-40
2022/12/17 19:10:05;;;;;;;;;;;10.80;81.40;;;;;;5047270;28;87048;-41
2022/12/17 19:12:30;;;;;;;;;;;10.80;81.40;;;;;;5043868;28;88265;-41
2022/12/17 19:14:55;;;;;;;;;;;10.80;81.40;;;;;;5044385;28;86777;-41
2022/12/17 19:17:21;;;;;;;;;;;10.80;81.20;;;;;;5044618;28;87520;-40
2022/12/17 19:19:47;;;;;;;;;;;10.80;81.20;;;;;;5043645;28;88124;-41
2022/12/17 19:22:12;;;;;;;;;;;10.80;81.20;;;;;;5043747;28;87156;-41
2022/12/17 19:24:38;;;;;;;;;;;10.80;81.30;;;;;;5043449;28;87982;-41
2022/12/17 19:27:03;;;;;;;;;;;10.80;81.20;;;;;;5043700;28;87982;-41
2022/12/17 19:29:29;;;;;;;;;;;10.80;81.20;;;;;;5046966;28;87168;-41
2022/12/17 19:31:54;;;;;;;;;;;10.80;81.10;;;;;;5043650;28;88431;-41
2022/12/17 19:34:20;;;;;;;;;;;10.70;81.20;;;;;;5043727;28;87074;-41
2022/12/17 19:36:46;;;;;;;;;;;10.70;81.20;;;;;;5043813;28;87594;-41
2022/12/17 19:39:14;;;;;;;;;;;10.70;81.20;;;;;;5043182;28;88036;-41
2022/12/17 19:41:40;;;;;;;;;;;10.70;81.20;;;;;;5044105;28;86432;-41
2022/12/17 19:44:06;;;;;;;;;;;10.80;81.20;;;;;;5042815;27;87007;-41
2022/12/17 19:46:33;;;;;;;;;;;10.80;81.10;;;;;;5043299;28;87967;-41
2022/12/17 19:48:59;;;;;;;;;;;10.80;81.70;;;;;;5042711;28;88035;-41
2022/12/17 19:51:26;;;;;;;;;;;10.70;81.10;;;;;;5046260;28;88223;-41
2022/12/17 19:53:51;;;;;;;;;;;10.70;81.10;;;;;;5043422;28;87051;-41
2022/12/17 19:56:17;;;;;;;;;;;10.70;81.20;;;;;;5043418;28;87385;-41
2022/12/17 19:58:43;;;;;;;;;;;10.70;81.30;;;;;;5042944;28;88022;-40
2022/12/17 20:01:09;;;;;;;;;;;10.70;81.20;;;;;;5043316;28;87107;-41
2022/12/17 20:03:35;;;;;;;;;;;10.70;81.20;;;;;;5042994;28;88761;-41
2022/12/17 20:06:01;;;;;;;;;;;10.70;81.20;;;;;;5043690;28;86965;-41
2022/12/17 20:08:29;;;;;;;;;;;10.70;81.20;;;;;;5043191;28;87164;-41
2022/12/17 20:10:55;;;;;;;;;;;10.60;81.90;;;;;;5043081;28;87371;-40
2022/12/17 20:13:20;;;;;;;;;;;10.60;81.30;;;;;;5044933;28;89101;-41
2022/12/17 20:15:46;;;;;;;;;;;10.70;81.20;;;;;;5043220;28;88404;-41
2022/12/17 20:18:11;;;;;;;;;;;10.70;81.20;;;;;;5042646;28;88290;-41
2022/12/17 20:20:37;;;;;;;;;;;10.70;81.20;;;;;;5042770;28;87129;-41
2022/12/17 20:23:02;;;;;;;;;;;10.70;81.10;;;;;;5043216;28;87379;-40
2022/12/17 20:25:28;;;;;;;;;;;10.70;81.10;;;;;;5042666;28;87342;-41
2022/12/17 20:27:54;;;;;;;;;;;10.70;81.20;;;;;;5042738;28;87142;-41
2022/12/17 20:30:23;;;;;;;;;;;10.60;81.10;;;;;;5043299;28;87461;-40
2022/12/17 20:32:52;;;;;;;;;;;10.60;81.00;;;;;;5042263;28;88691;-41
2022/12/17 20:35:17;;;;;;;;;;;10.60;81.10;;;;;;5045450;28;87121;-41
2022/12/17 20:37:43;;;;;;;;;;;10.60;81.00;;;;;;5041839;28;89007;-41
2022/12/17 20:40:08;;;;;;;;;;;10.60;81.00;;;;;;5042481;28;87193;-41
2022/12/17 20:42:34;;;;;;;;;;;10.60;81.10;;;;;;5042832;28;87317;-41
2022/12/17 20:44:59;;;;;;;;;;;10.60;81.10;;;;;;5042403;28;87994;-40
2022/12/17 20:47:25;;;;;;;;;;;10.60;81.00;;;;;;5042796;28;86902;-41
2022/12/17 20:49:51;;;;;;;;;;;10.60;80.90;;;;;;5042551;28;87411;-41
2022/12/17 20:52:16;;;;;;;;;;;10.60;80.90;;;;;;5042422;28;87260;-41
2022/12/17 20:54:42;;;;;;;;;;;10.60;81.00;;;;;;5044818;27;86918;-40
2022/12/17 20:57:07;;;;;;;;;;;10.60;81.00;;;;;;5051811;28;87109;-41
2022/12/17 20:59:33;;;;;;;;;;;10.60;81.00;;;;;;5049408;27;87082;-41
2022/12/17 21:01:58;;;;;;;;;;;10.60;81.00;;;;;;5048487;28;87997;-41
2022/12/17 21:04:23;;;;;;;;;;;10.60;81.00;;;;;;5048820;28;88037;-41
2022/12/17 21:06:49;;;;;;;;;;;10.60;81.00;;;;;;5049075;28;87123;-41
2022/12/17 21:09:17;;;;;;;;;;;10.60;81.00;;;;;;5049318;28;87562;-41
2022/12/17 21:11:42;;;;;;;;;;;10.60;81.00;;;;;;5048669;28;89167;-41
2022/12/17 21:14:12;;;;;;;;;;;10.60;81.00;;;;;;5049258;28;86975;-41
2022/12/17 21:16:38;;;;;;;;;;;10.50;80.90;;;;;;5049108;28;87401;-41
2022/12/17 21:19:04;;;;;;;;;;;10.60;81.00;;;;;;5051796;28;86466;-41
2022/12/17 21:21:31;;;;;;;;;;;10.60;80.90;;;;;;5049141;28;87333;-41
2022/12/17 21:23:57;;;;;;;;;;;10.50;81.00;;;;;;5048599;28;87028;-40
2022/12/17 21:26:25;;;;;;;;;;;10.60;80.90;;;;;;5048387;28;88066;-41
2022/12/17 21:28:52;;;;;;;;;;;10.50;80.90;;;;;;5048867;28;88605;-41
2022/12/17 21:31:23;;;;;;;;;;;10.50;80.90;;;;;;5048302;28;88946;-41
2022/12/17 21:33:49;;;;;;;;;;;10.50;80.90;;;;;;5048698;28;87069;-41
2022/12/17 21:36:15;;;;;;;;;;;10.60;80.90;;;;;;5049059;28;87427;-41
2022/12/17 21:38:41;;;;;;;;;;;10.50;80.90;;;;;;5051397;28;88641;-41
2022/12/17 21:41:26;;;;;;;;;;;10.50;80.90;;;;;;5048049;28;87737;-41
2022/12/17 21:43:52;;;;;;;;;;;10.50;80.90;;;;;;5049037;28;87416;-40
2022/12/17 21:46:18;;;;;;;;;;;10.50;80.80;;;;;;5048434;28;87152;-40
2022/12/17 21:48:43;;;;;;;;;;;10.50;80.80;;;;;;5048387;28;89082;-41
2022/12/17 21:51:10;;;;;;;;;;;10.50;81.40;;;;;;5047522;28;90497;-41
2022/12/17 21:53:40;;;;;;;;;;;10.50;80.80;;;;;;5048623;28;87098;-41
2022/12/17 21:56:07;;;;;;;;;;;10.50;80.80;;;;;;5048441;28;87615;-41
2022/12/17 21:58:33;;;;;;;;;;;10.50;80.80;;;;;;5048006;28;87988;-40
2022/12/17 22:01:08;;;;;;;;;;;10.50;80.90;;;;;;5051160;28;87134;-41
2022/12/17 22:03:34;;;;;;;;;;;10.50;80.80;;;;;;5048190;27;88065;-41
2022/12/17 22:06:04;;;;;;;;;;;10.50;80.80;;;;;;5047377;28;87116;-40
2022/12/17 22:08:29;;;;;;;;;;;10.50;80.80;;;;;;5045521;28;87018;-41
2022/12/17 22:10:55;;;;;;;;;;;10.50;80.90;;;;;;5044659;28;87251;-40
2022/12/17 22:16:05;;;;;;;;;;;10.50;80.80;;;;;;5044686;28;87947;-40
2022/12/17 22:18:30;;;;;;;;;;;10.50;80.80;;;;;;5044333;28;90146;-41
2022/12/17 22:20:57;;;;;;;;;;;10.40;80.70;;;;;;5045110;28;87136;-40
2022/12/17 22:23:22;;;;;;;;;;;10.50;80.80;;;;;;5047455;28;87454;-40
2022/12/17 22:25:48;;;;;;;;;;;10.40;80.70;;;;;;5044843;28;87056;-40
2022/12/17 22:28:13;;;;;;;;;;;10.40;80.70;;;;;;5044767;28;87534;-41
2022/12/17 22:33:23;;;;;;;;;;;10.40;80.80;;;;;;5045397;28;86376;-41
2022/12/17 22:35:49;;;;;;;;;;;10.40;80.70;;;;;;5044924;28;86880;-41
2022/12/17 22:38:14;;;;;;;;;;;10.40;80.80;;;;;;5043902;28;89364;-40
2022/12/17 22:40:40;;;;;;;;;;;10.40;80.70;;;;;;5043321;28;88107;-40
2022/12/17 22:45:56;;;;;;;;;;;10.40;80.80;;;;;;5047378;28;87277;-41
2022/12/17 22:48:22;;;;;;;;;;;10.40;80.70;;;;;;5044266;28;87304;-41
2022/12/17 22:50:47;;;;;;;;;;;10.40;80.80;;;;;;5044081;28;88137;-41
2022/12/17 22:53:13;;;;;;;;;;;10.40;80.80;;;;;;5044544;28;87132;-40
2022/12/17 22:55:38;;;;;;;;;;;10.40;80.80;;;;;;5044413;28;87404;-41
2022/12/17 22:58:04;;;;;;;;;;;10.30;80.70;;;;;;5044448;28;87354;-40
2022/12/17 23:00:30;;;;;;;;;;;10.40;80.80;;;;;;5044087;28;86913;-40
2022/12/17 23:02:56;;;;;;;;;;;10.30;80.70;;;;;;5043999;28;87404;-40
2022/12/17 23:05:22;;;;;;;;;;;10.30;80.70;;;;;;5043355;28;89008;-41
2022/12/17 23:07:48;;;;;;;;;;;10.30;80.70;;;;;;5046883;28;88241;-40
2022/12/17 23:10:14;;;;;;;;;;;10.40;80.80;;;;;;5043888;28;87977;-41
2022/12/17 23:12:54;;;;;;;;;;;10.30;80.70;;;;;;5044183;28;87124;-41
2022/12/17 23:15:24;;;;;;;;;;;10.30;80.70;;;;;;5044312;28;87367;-41
2022/12/17 23:17:51;;;;;;;;;;;10.30;80.60;;;;;;5042670;28;88116;-41
2022/12/17 23:20:16;;;;;;;;;;;10.30;80.70;;;;;;5043368;28;87123;-41
2022/12/17 23:22:42;;;;;;;;;;;10.30;80.70;;;;;;5044737;28;87518;-41
2022/12/17 23:25:08;;;;;;;;;;;10.30;80.70;;;;;;5043765;28;88238;-41
2022/12/17 23:27:33;;;;;;;;;;;10.20;80.60;;;;;;5043568;28;87169;-40
2022/12/17 23:29:59;;;;;;;;;;;10.20;80.60;;;;;;5045887;28;88040;-41
2022/12/17 23:32:25;;;;;;;;;;;10.20;80.60;;;;;;5043709;28;87325;-41
2022/12/17 23:34:50;;;;;;;;;;;10.20;80.60;;;;;;5043823;28;87291;-41
2022/12/17 23:37:16;;;;;;;;;;;10.20;80.60;;;;;;5043542;27;88052;-41
2022/12/17 23:39:41;;;;;;;;;;;10.20;80.50;;;;;;5042889;28;89005;-41
2022/12/17 23:42:07;;;;;;;;;;;10.20;80.60;;;;;;5043727;28;87272;-41
2022/12/17 23:44:32;;;;;;;;;;;10.20;80.50;;;;;;5043394;28;87930;-41
2022/12/17 23:46:58;;;;;;;;;;;10.10;80.50;;;;;;5043929;28;86397;-41
2022/12/17 23:49:23;;;;;;;;;;;10.20;80.60;;;;;;5045980;28;87090;-40
2022/12/17 23:51:49;;;;;;;;;;;10.20;80.50;;;;;;5043438;28;87146;-41
2022/12/17 23:54:14;;;;;;;;;;;10.20;80.50;;;;;;5043065;28;87967;-41
2022/12/17 23:56:40;;;;;;;;;;;10.10;80.50;;;;;;5043051;28;88074;-41
2022/12/17 23:59:06;;;;;;;;;;;10.20;80.50;;;;;;5043087;28;87131;-40
